createdAt,value
2023-10-22T00:00:59.797Z,99638.40
2023-10-22T00:06:23.996Z,99636.11
2023-10-22T00:11:27.422Z,99645.56
2023-10-22T00:16:30.753Z,99656.41
2023-10-22T00:21:35.915Z,99658.13
2023-10-22T00:26:41.468Z,99657.59
2023-10-22T00:31:44.873Z,99660.15
2023-10-22T00:36:48.200Z,99660.96
2023-10-22T00:41:52.033Z,99655.40
2023-10-22T00:46:55.910Z,99649.26
2023-10-22T00:51:59.596Z,99645.39
2023-10-22T00:57:04.633Z,99635.30
2023-10-22T01:02:08.722Z,99627.81
2023-10-22T01:07:12.066Z,99623.89
2023-10-22T01:12:15.467Z,99629.68
2023-10-22T01:17:20.869Z,99638.27
2023-10-22T01:22:24.743Z,99642.04
2023-10-22T01:27:28.025Z,99642.73
2023-10-22T01:32:32.215Z,99642.95
2023-10-22T01:37:39.218Z,99639.32
2023-10-22T01:42:42.534Z,99633.27
2023-10-22T01:47:45.889Z,99632.73
2023-10-22T01:52:49.415Z,99631.83
2023-10-22T01:57:54.908Z,99632.83
2023-10-22T02:02:58.267Z,99639.02
2023-10-22T02:08:03.566Z,99637.26
2023-10-22T02:13:06.976Z,99644.98
2023-10-22T02:18:10.658Z,99648.88
2023-10-22T02:23:14.282Z,99645.31
2023-10-22T02:28:20.764Z,99639.84
2023-10-22T02:33:24.299Z,99653.25
2023-10-22T02:38:28.029Z,99656.80
2023-10-22T02:43:32.351Z,99657.98
2023-10-22T02:48:35.761Z,99658.50
2023-10-22T02:53:40.212Z,99661.60
2023-10-22T02:58:43.885Z,99659.38
2023-10-22T03:03:47.283Z,99659.23
2023-10-22T03:08:51.028Z,99663.05
2023-10-22T03:13:54.396Z,99671.55
2023-10-22T03:18:57.825Z,99681.27
2023-10-22T03:24:03.035Z,99681.29
2023-10-22T03:29:06.369Z,99676.32
2023-10-22T03:34:09.854Z,99680.00
2023-10-22T03:39:15.192Z,99682.48
2023-10-22T03:44:18.582Z,99686.17
2023-10-22T03:49:21.963Z,99690.02
2023-10-22T03:54:25.330Z,99688.84
2023-10-22T03:59:28.627Z,99678.34
2023-10-22T04:04:32.303Z,99667.69
2023-10-22T04:09:35.786Z,99661.03
2023-10-22T04:14:39.449Z,99653.83
2023-10-22T04:19:43.014Z,99646.42
2023-10-22T04:24:47.153Z,99638.67
2023-10-22T04:29:51.292Z,99630.26
2023-10-22T04:34:54.617Z,99613.09
2023-10-22T04:39:59.882Z,99610.28
2023-10-22T04:45:03.893Z,99614.59
2023-10-22T04:50:07.525Z,99613.73
2023-10-22T04:55:17.085Z,99612.00
2023-10-22T05:00:20.642Z,99618.08
2023-10-22T05:05:25.357Z,99621.38
2023-10-22T05:10:28.757Z,99616.59
2023-10-22T05:15:32.102Z,99620.60
2023-10-22T05:20:35.982Z,99629.46
2023-10-22T05:25:39.389Z,99640.92
2023-10-22T05:30:42.780Z,99646.15
2023-10-22T05:35:46.215Z,99652.57
2023-10-22T05:40:49.664Z,99652.77
2023-10-22T05:45:59.232Z,99656.96
2023-10-22T05:51:02.788Z,99650.63
2023-10-22T05:56:06.212Z,99646.19
2023-10-22T06:01:10.749Z,99648.00
2023-10-22T06:06:19.226Z,99646.89
2023-10-22T06:11:22.552Z,99646.12
2023-10-22T06:16:26.013Z,99641.17
2023-10-22T06:21:30.174Z,99644.22
2023-10-22T06:26:33.525Z,99649.17
2023-10-22T06:31:36.894Z,99649.29
2023-10-22T06:36:41.060Z,99647.48
2023-10-22T06:41:45.801Z,99646.38
2023-10-22T06:46:49.308Z,99645.09
2023-10-22T06:51:54.765Z,99646.58
2023-10-22T06:56:58.421Z,99643.23
2023-10-22T07:02:02.238Z,99639.85
2023-10-22T07:07:05.646Z,99642.20
2023-10-22T07:12:09.473Z,99647.19
2023-10-22T07:17:13.235Z,99642.30
2023-10-22T07:22:16.622Z,99635.63
2023-10-22T07:27:20.146Z,99629.64
2023-10-22T07:32:23.530Z,99630.77
2023-10-22T07:37:26.997Z,99623.73
2023-10-22T07:42:32.088Z,99614.13
2023-10-22T07:47:36.777Z,99605.05
2023-10-22T07:52:40.329Z,99600.61
2023-10-22T07:57:43.626Z,99596.17
2023-10-22T08:02:47.075Z,99591.92
2023-10-22T08:07:50.536Z,99585.92
2023-10-22T08:12:54.030Z,99587.92
2023-10-22T08:17:57.595Z,99587.65
2023-10-22T08:23:02.022Z,99580.77
2023-10-22T08:28:07.781Z,99573.73
2023-10-22T08:33:11.332Z,99573.84
2023-10-22T08:38:18.858Z,99567.27
2023-10-22T08:43:22.224Z,99559.07
2023-10-22T08:48:30.985Z,99555.21
2023-10-22T08:53:34.503Z,99548.94
2023-10-22T08:58:37.983Z,99540.74
2023-10-22T09:03:43.523Z,99528.73
2023-10-22T09:08:47.711Z,99520.64
2023-10-22T09:13:51.377Z,99513.77
2023-10-22T09:18:54.974Z,99503.74
2023-10-22T09:24:06.340Z,99500.48
2023-10-22T09:29:10.146Z,99495.86
2023-10-22T09:34:36.591Z,99497.48
2023-10-22T09:39:44.528Z,99499.94
2023-10-22T09:44:48.416Z,99492.36
2023-10-22T09:49:57.592Z,99492.76
2023-10-22T09:55:06.190Z,99489.16
2023-10-22T10:00:16.199Z,99496.84
2023-10-22T10:05:22.187Z,99496.52
2023-10-22T10:10:25.829Z,99491.52
2023-10-22T10:15:40.046Z,99487.42
2023-10-22T10:20:44.136Z,99487.46
2023-10-22T10:25:47.559Z,99483.67
2023-10-22T10:30:52.921Z,99476.95
2023-10-22T10:35:57.798Z,99472.80
2023-10-22T10:41:01.201Z,99470.90
2023-10-22T10:46:28.354Z,99472.82
2023-10-22T10:51:31.987Z,99475.96
2023-10-22T10:56:51.903Z,99472.14
2023-10-22T11:02:13.762Z,99472.85
2023-10-22T11:07:26.737Z,99471.63
2023-10-22T11:12:31.253Z,99473.54
2023-10-22T11:17:34.719Z,99474.24
2023-10-22T11:22:38.588Z,99470.77
2023-10-22T11:27:43.164Z,99472.52
2023-10-22T11:32:49.470Z,99477.73
2023-10-22T11:37:54.746Z,99479.64
2023-10-22T11:43:04.642Z,99480.16
2023-10-22T11:48:16.575Z,99479.47
2023-10-22T11:53:20.051Z,99478.59
2023-10-22T11:58:26.679Z,99475.81
2023-10-22T12:03:30.268Z,99474.42
2023-10-22T12:08:33.778Z,99472.15
2023-10-22T12:13:37.223Z,99468.32
2023-10-22T12:18:40.733Z,99463.45
2023-10-22T12:23:49.624Z,99462.23
2023-10-22T12:28:56.196Z,99465.02
2023-10-22T12:33:59.712Z,99462.39
2023-10-22T12:39:04.786Z,99458.94
2023-10-22T12:44:08.212Z,99459.45
2023-10-22T12:49:12.062Z,99461.88
2023-10-22T12:54:15.618Z,99460.14
2023-10-22T12:59:19.188Z,99461.38
2023-10-22T13:04:25.709Z,99462.77
2023-10-22T13:09:29.360Z,99463.46
2023-10-22T13:14:33.022Z,99461.71
2023-10-22T13:19:39.885Z,99458.91
2023-10-22T13:24:43.689Z,99457.88
2023-10-22T13:29:47.193Z,99460.14
2023-10-22T13:34:52.938Z,99460.67
2023-10-22T13:39:56.526Z,99458.75
2023-10-22T13:45:01.477Z,99459.28
2023-10-22T13:50:07.565Z,99461.20
2023-10-22T13:55:13.441Z,99464.15
2023-10-22T14:00:17.305Z,99463.61
2023-10-22T14:05:21.028Z,99463.96
2023-10-22T14:10:24.488Z,99465.86
2023-10-22T14:15:29.596Z,99467.59
2023-10-22T14:20:33.483Z,99466.19
2023-10-22T14:25:38.170Z,99464.43
2023-10-22T14:30:45.721Z,99469.64
2023-10-22T14:35:53.749Z,99475.20
2023-10-22T14:40:57.276Z,99472.94
2023-10-22T14:46:01.812Z,99477.80
2023-10-22T14:51:05.353Z,99481.95
2023-10-22T14:56:09.098Z,99485.42
2023-10-22T15:01:14.032Z,99484.88
2023-10-22T15:06:17.688Z,99488.00
2023-10-22T15:11:23.213Z,99489.90
2023-10-22T15:16:27.779Z,99491.27
2023-10-22T15:21:31.577Z,99489.52
2023-10-22T15:26:36.351Z,99493.48
2023-10-22T15:31:40.342Z,99491.55
2023-10-22T15:36:46.250Z,99494.45
2023-10-22T15:41:50.098Z,99499.46
2023-10-22T15:46:55.225Z,99506.23
2023-10-22T15:51:59.092Z,99517.49
2023-10-22T15:57:03.169Z,99524.77
2023-10-22T16:02:07.132Z,99528.77
2023-10-22T16:07:11.423Z,99529.77
2023-10-22T16:12:19.414Z,99534.11
2023-10-22T16:17:25.819Z,99533.60
2023-10-22T16:22:29.658Z,99537.42
2023-10-22T16:27:33.640Z,99544.19
2023-10-22T16:32:37.339Z,99548.71
2023-10-22T16:37:41.021Z,99555.13
2023-10-22T16:42:47.231Z,99557.77
2023-10-22T16:47:53.010Z,99556.21
2023-10-22T16:52:57.140Z,99563.02
2023-10-22T16:58:00.983Z,99561.47
2023-10-22T17:03:05.138Z,99566.85
2023-10-22T17:08:09.441Z,99574.48
2023-10-22T17:13:14.004Z,99575.02
2023-10-22T17:18:19.037Z,99576.58
2023-10-22T17:23:22.952Z,99571.33
2023-10-22T17:28:27.689Z,99577.92
2023-10-22T17:33:37.067Z,99581.89
2023-10-22T17:38:49.517Z,99590.55
2023-10-22T17:43:53.311Z,99592.95
2023-10-22T17:48:57.942Z,99595.38
2023-10-22T17:54:01.755Z,99597.09
2023-10-22T17:59:05.428Z,99602.45
2023-10-22T18:04:09.495Z,99604.38
2023-10-22T18:09:15.131Z,99608.17
2023-10-22T18:14:19.279Z,99608.34
2023-10-22T18:19:35.140Z,99617.70
2023-10-22T18:24:44.296Z,99626.38
2023-10-22T18:29:48.177Z,99635.39
2023-10-22T18:34:51.826Z,99639.22
2023-10-22T18:39:55.503Z,99640.96
2023-10-22T18:44:59.201Z,99639.58
2023-10-22T18:50:02.954Z,99650.33
2023-10-22T18:55:07.883Z,99654.48
2023-10-22T19:00:12.456Z,99659.19
2023-10-22T19:05:16.133Z,99667.52
2023-10-22T19:10:19.980Z,99670.10
2023-10-22T19:15:23.886Z,99673.55
2023-10-22T19:20:29.807Z,99680.14
2023-10-22T19:25:36.768Z,99687.60
2023-10-22T19:30:40.502Z,99697.63
2023-10-22T19:35:44.317Z,99702.48
2023-10-22T19:40:47.977Z,99708.52
2023-10-22T19:46:19.855Z,99707.65
2023-10-22T19:51:23.514Z,99707.81
2023-10-22T19:56:27.150Z,99710.23
2023-10-22T20:01:30.606Z,99718.22
2023-10-22T20:06:35.279Z,99720.11
2023-10-22T20:11:38.918Z,99726.20
2023-10-22T20:16:43.384Z,99733.34
2023-10-22T20:21:46.807Z,99737.52
2023-10-22T20:26:50.705Z,99741.52
2023-10-22T20:31:54.631Z,99741.54
2023-10-22T20:37:04.169Z,99746.58
2023-10-22T20:42:07.690Z,99754.59
2023-10-22T20:47:14.297Z,99756.52
2023-10-22T20:52:17.728Z,99756.02
2023-10-22T20:57:21.477Z,99759.17
2023-10-22T21:02:29.089Z,99758.66
2023-10-22T21:07:35.673Z,99764.08
2023-10-22T21:12:43.289Z,99766.02
2023-10-22T21:17:46.839Z,99765.34
2023-10-22T21:22:54.550Z,99772.13
2023-10-22T21:27:58.011Z,99778.05
2023-10-22T21:33:04.967Z,99780.84
2023-10-22T21:38:08.395Z,99783.11
2023-10-22T21:43:11.749Z,99785.91
2023-10-22T21:48:15.704Z,99785.04
2023-10-22T21:53:28.260Z,99785.55
2023-10-22T21:58:35.420Z,99787.48
2023-10-22T22:03:38.980Z,99787.48
2023-10-22T22:08:43.108Z,99795.14
2023-10-22T22:13:47.466Z,99801.06
2023-10-22T22:18:51.056Z,99800.04
2023-10-22T22:23:54.854Z,99806.13
2023-10-22T22:28:58.324Z,99813.42
2023-10-22T22:34:03.822Z,99817.77
2023-10-22T22:39:07.594Z,99819.16
2023-10-22T22:44:14.012Z,99823.17
2023-10-22T22:49:17.483Z,99825.63
2023-10-22T22:54:22.891Z,99823.20
2023-10-22T22:59:28.125Z,99831.37
2023-10-22T23:04:32.584Z,99832.27
2023-10-22T23:09:36.001Z,99831.79
2023-10-22T23:14:39.472Z,99830.75
2023-10-22T23:19:43.024Z,99838.39
2023-10-22T23:24:46.383Z,99841.35
2023-10-22T23:29:49.733Z,99846.21
2023-10-22T23:34:53.055Z,99852.11
2023-10-22T23:39:56.563Z,99849.16
2023-10-22T23:44:59.945Z,99855.61
2023-10-22T23:50:03.494Z,99861.52
2023-10-22T23:55:07.381Z,99864.30
